CheckWX is a tool to help pilots better visualize weather data.  It is not intended as a substitute for an official pre-flight weather briefing.

07:47:53 UTC

ESGT METAR
Trollhättan-Vänersborg Airport
Trollhättan, Sweden
Current

28 mins ago

ESGT 070720Z 26013KT 9999 FEW015 08/05 Q1022
Observed
Apr-7 @ 07:20 UTC
Wind
  • 260° at 13 KTS
Visibility
10,000+ meters
Flight Rules
VFR
Cloud Levels
  • Few at 1,500' AGL
Temperature
C / 46°F
Dewpoint
C / 41°F
Humidity
82%
Altimeter
30.18" Hg
Pressure
1021.92 hPa
Previous

58 mins ago

ESGT 070650Z 26013KT 9999 SCT015 08/05 Q1021
Observed
Apr-7 @ 06:50 UTC
Wind
  • 260° at 13 KTS
Visibility
10,000+ meters
Flight Rules
VFR
Cloud Levels
  • Scattered at 1,500' AGL
Temperature
C / 46°F
Dewpoint
C / 41°F
Humidity
82%
Altimeter
30.15" Hg
Pressure
1020.92 hPa
Previous

1 hour ago

ESGT 070620Z 24012KT 9999 SCT014 08/05 Q1021
Observed
Apr-7 @ 06:20 UTC
Wind
  • 240° at 12 KTS
Visibility
10,000+ meters
Flight Rules
VFR
Cloud Levels
  • Scattered at 1,400' AGL
Temperature
C / 46°F
Dewpoint
C / 41°F
Humidity
82%
Altimeter
30.15" Hg
Pressure
1020.92 hPa